Time;durP1;ratioP1;P1;durP2;ratioP2;P2;SDS_P1;SDS_P2;PMS_P1;PMS_P2;Temp;Humidity;BMP_temperature;BMP_pressure;BME280_temperature;BME280_humidity;BME280_pressure;Samples;Min_cycle;Max_cycle;Signal;HPM_P1;HPM_P2
2021/01/12 00:00:19;;;;;;;17.60;9.32;;;;;;;;;;5029313;28;20033;-54
2021/01/12 00:02:45;;;;;;;15.18;8.98;;;;;;;;;;5030342;28;20079;-57
2021/01/12 00:05:11;;;;;;;17.63;9.90;;;;;;;;;;5028561;28;20025;-52
2021/01/12 00:07:37;;;;;;;17.27;9.15;;;;;;;;;;5027965;28;20136;-53
2021/01/12 00:10:04;;;;;;;15.52;8.90;;;;;;;;;;5020897;28;20773;-53
2021/01/12 00:12:30;;;;;;;15.98;8.77;;;;;;;;;;5013244;28;20025;-52
2021/01/12 00:14:56;;;;;;;19.95;9.95;;;;;;;;;;5013884;28;20377;-50
2021/01/12 00:17:22;;;;;;;16.33;8.82;;;;;;;;;;5028223;28;20601;-53
2021/01/12 00:19:48;;;;;;;17.25;9.32;;;;;;;;;;5027903;28;20029;-56
2021/01/12 00:22:14;;;;;;;17.20;9.52;;;;;;;;;;5028706;28;20022;-53
2021/01/12 00:24:41;;;;;;;21.60;10.50;;;;;;;;;;5028537;28;20481;-55
2021/01/12 00:27:07;;;;;;;18.58;9.45;;;;;;;;;;5027952;28;20420;-53
2021/01/12 00:29:33;;;;;;;19.40;11.00;;;;;;;;;;5025462;28;20021;-55
2021/01/12 00:31:59;;;;;;;17.60;9.77;;;;;;;;;;5028397;28;20032;-52
2021/01/12 00:34:25;;;;;;;18.25;10.20;;;;;;;;;;5032803;28;20030;-52
2021/01/12 00:36:52;;;;;;;17.25;10.02;;;;;;;;;;5027247;28;20033;-56
2021/01/12 00:39:18;;;;;;;18.80;10.15;;;;;;;;;;5028818;28;20779;-52
2021/01/12 00:41:55;;;;;;;16.65;10.52;;;;;;;;;;5019289;28;20053;-54
2021/01/12 00:44:21;;;;;;;17.30;9.88;;;;;;;;;;5017722;28;20025;-55
2021/01/12 00:46:48;;;;;;;18.27;9.95;;;;;;;;;;5028558;28;20085;-54
2021/01/12 00:49:14;;;;;;;17.85;10.20;;;;;;;;;;5027877;28;20056;-54
2021/01/12 00:51:41;;;;;;;17.17;10.20;;;;;;;;;;5028926;28;20048;-54
2021/01/12 00:54:08;;;;;;;18.27;10.02;;;;;;;;;;5027340;28;20037;-53
2021/01/12 00:56:34;;;;;;;18.23;10.07;;;;;;;;;;5009209;28;20032;-56
2021/01/12 00:59:00;;;;;;;17.42;10.18;;;;;;;;;;5017441;28;20877;-53
2021/01/12 01:01:26;;;;;;;18.23;10.13;;;;;;;;;;5026056;28;20017;-55
2021/01/12 01:03:52;;;;;;;18.92;9.48;;;;;;;;;;5029153;28;20043;-57
2021/01/12 01:06:19;;;;;;;19.27;10.95;;;;;;;;;;5028567;28;20029;-55
2021/01/12 01:08:45;;;;;;;19.08;11.05;;;;;;;;;;5029323;28;20532;-53
2021/01/12 01:11:11;;;;;;;19.67;11.25;;;;;;;;;;5025108;28;20021;-56
2021/01/12 01:13:36;;;;;;;17.50;10.43;;;;;;;;;;5029101;28;20440;-55
2021/01/12 01:16:02;;;;;;;18.20;10.23;;;;;;;;;;5025740;28;20037;-55
2021/01/12 01:18:28;;;;;;;17.80;9.68;;;;;;;;;;5029007;28;20030;-52
2021/01/12 01:20:54;;;;;;;18.70;10.45;;;;;;;;;;5025339;28;20021;-56
2021/01/12 01:23:20;;;;;;;20.55;11.40;;;;;;;;;;5028312;28;20485;-56
2021/01/12 01:25:46;;;;;;;22.95;11.50;;;;;;;;;;5026973;28;20022;-52
2021/01/12 01:28:12;;;;;;;18.85;10.80;;;;;;;;;;5028112;28;20040;-56
2021/01/12 01:30:38;;;;;;;17.55;9.65;;;;;;;;;;5025119;28;20117;-55
2021/01/12 01:33:05;;;;;;;17.73;10.10;;;;;;;;;;5029185;28;20037;-57
2021/01/12 01:35:31;;;;;;;21.90;10.77;;;;;;;;;;5035967;28;20032;-55
2021/01/12 01:37:57;;;;;;;20.17;10.88;;;;;;;;;;5027540;28;20722;-52
2021/01/12 01:40:23;;;;;;;21.73;10.32;;;;;;;;;;5027472;28;20064;-55
2021/01/12 01:42:49;;;;;;;20.30;11.45;;;;;;;;;;5015998;28;20057;-52
2021/01/12 01:45:16;;;;;;;20.02;10.60;;;;;;;;;;5027567;28;20068;-50
2021/01/12 01:47:43;;;;;;;21.05;11.73;;;;;;;;;;5027714;28;20440;-50
2021/01/12 01:50:19;;;;;;;23.27;12.00;;;;;;;;;;5027777;28;20025;-53
2021/01/12 01:52:49;;;;;;;23.65;11.23;;;;;;;;;;5027521;28;20021;-56
2021/01/12 01:55:16;;;;;;;23.45;11.75;;;;;;;;;;5026663;28;20041;-52
2021/01/12 01:57:42;;;;;;;21.45;12.05;;;;;;;;;;5026113;28;20803;-54
2021/01/12 02:00:10;;;;;;;23.13;12.90;;;;;;;;;;5026377;28;20354;-55
2021/01/12 02:02:38;;;;;;;22.55;11.98;;;;;;;;;;5026102;28;20026;-52
2021/01/12 02:05:06;;;;;;;24.35;12.43;;;;;;;;;;5027451;28;20028;-57
2021/01/12 02:07:32;;;;;;;25.90;12.90;;;;;;;;;;5026751;28;20028;-51
2021/01/12 02:09:59;;;;;;;23.13;11.95;;;;;;;;;;5026904;28;20018;-56
2021/01/12 02:12:32;;;;;;;25.85;13.13;;;;;;;;;;5012312;28;20058;-53
2021/01/12 02:14:58;;;;;;;22.60;13.50;;;;;;;;;;5012058;28;20082;-55
2021/01/12 02:17:29;;;;;;;24.40;12.93;;;;;;;;;;5027996;28;20034;-53
2021/01/12 02:19:55;;;;;;;21.63;12.10;;;;;;;;;;5025987;28;20072;-55
2021/01/12 02:22:22;;;;;;;25.00;12.82;;;;;;;;;;5027928;28;20030;-54
2021/01/12 02:24:48;;;;;;;21.52;12.75;;;;;;;;;;5025498;28;20109;-55
2021/01/12 02:27:21;;;;;;;23.25;12.85;;;;;;;;;;5024816;28;20018;-56
2021/01/12 02:29:49;;;;;;;25.10;13.52;;;;;;;;;;5025831;28;20515;-54
2021/01/12 02:32:16;;;;;;;25.65;14.30;;;;;;;;;;5025390;28;20073;-55
2021/01/12 02:34:44;;;;;;;23.63;13.90;;;;;;;;;;5041246;28;20021;-52
2021/01/12 02:37:10;;;;;;;29.02;15.10;;;;;;;;;;5028237;28;20041;-54
2021/01/12 02:39:36;;;;;;;24.00;12.85;;;;;;;;;;5023315;28;20030;-54
2021/01/12 02:42:02;;;;;;;28.58;14.32;;;;;;;;;;5024431;28;20080;-53
2021/01/12 02:44:27;;;;;;;25.92;13.85;;;;;;;;;;5026125;28;20077;-56
2021/01/12 02:46:55;;;;;;;28.55;13.95;;;;;;;;;;5026746;28;20036;-54
2021/01/12 02:49:21;;;;;;;24.70;13.43;;;;;;;;;;5026261;28;20029;-52
2021/01/12 02:51:47;;;;;;;25.98;14.63;;;;;;;;;;5024592;28;20041;-56
2021/01/12 02:54:13;;;;;;;24.92;14.20;;;;;;;;;;5025507;28;20036;-54
2021/01/12 02:56:39;;;;;;;23.55;13.95;;;;;;;;;;5026531;28;20124;-56
2021/01/12 02:59:05;;;;;;;23.77;13.27;;;;;;;;;;5024493;28;20535;-53
2021/01/12 03:01:31;;;;;;;23.05;13.35;;;;;;;;;;5025000;28;20375;-53
2021/01/12 03:03:57;;;;;;;24.73;14.13;;;;;;;;;;5026796;28;20620;-52
2021/01/12 03:06:23;;;;;;;24.25;13.57;;;;;;;;;;5024986;28;20501;-55
2021/01/12 03:08:49;;;;;;;29.45;14.35;;;;;;;;;;5027041;28;20033;-52
2021/01/12 03:11:15;;;;;;;24.08;14.05;;;;;;;;;;5020407;28;20034;-52
2021/01/12 03:13:41;;;;;;;23.40;13.57;;;;;;;;;;5020044;28;20037;-56
2021/01/12 03:16:07;;;;;;;27.75;13.98;;;;;;;;;;5027051;28;20025;-53
2021/01/12 03:18:33;;;;;;;22.75;13.07;;;;;;;;;;5025276;28;20064;-57
2021/01/12 03:20:59;;;;;;;24.17;13.82;;;;;;;;;;5026290;28;20041;-53
2021/01/12 03:23:25;;;;;;;25.98;14.38;;;;;;;;;;5024836;28;20105;-52
2021/01/12 03:25:52;;;;;;;24.75;13.70;;;;;;;;;;5025652;28;20516;-56
2021/01/12 03:28:17;;;;;;;22.58;12.75;;;;;;;;;;5024394;28;20461;-55
2021/01/12 03:30:43;;;;;;;19.33;11.85;;;;;;;;;;5025519;28;20045;-53
2021/01/12 03:33:09;;;;;;;23.67;13.40;;;;;;;;;;5024968;28;20026;-55
2021/01/12 03:35:35;;;;;;;22.27;12.90;;;;;;;;;;5019992;28;20469;-54
2021/01/12 03:38:01;;;;;;;24.58;14.20;;;;;;;;;;5026056;28;20469;-56
2021/01/12 03:40:27;;;;;;;22.52;13.52;;;;;;;;;;5025839;28;20424;-55
2021/01/12 03:42:53;;;;;;;24.65;12.93;;;;;;;;;;5006674;28;20058;-53
2021/01/12 03:45:19;;;;;;;23.75;13.25;;;;;;;;;;5023584;28;20104;-51
2021/01/12 03:47:45;;;;;;;23.25;13.13;;;;;;;;;;5026645;28;20021;-55
2021/01/12 03:50:11;;;;;;;23.85;13.57;;;;;;;;;;5023927;28;20040;-55
2021/01/12 03:52:37;;;;;;;23.23;13.55;;;;;;;;;;5026374;28;20025;-50
2021/01/12 03:55:04;;;;;;;22.98;13.50;;;;;;;;;;5026147;28;20039;-57
2021/01/12 03:57:30;;;;;;;21.55;12.77;;;;;;;;;;5029422;28;20420;-55
2021/01/12 03:59:56;;;;;;;24.02;13.75;;;;;;;;;;5027932;28;20033;-55
2021/01/12 04:02:22;;;;;;;20.98;12.32;;;;;;;;;;5029601;28;20036;-54
2021/01/12 04:04:48;;;;;;;22.77;12.80;;;;;;;;;;5027800;28;20102;-52
2021/01/12 04:07:14;;;;;;;22.35;12.90;;;;;;;;;;5029714;28;20013;-55
2021/01/12 04:09:40;;;;;;;23.05;13.35;;;;;;;;;;5028896;28;20121;-53
2021/01/12 04:12:06;;;;;;;23.67;13.93;;;;;;;;;;5016353;28;20076;-53
2021/01/12 04:14:32;;;;;;;21.95;12.98;;;;;;;;;;5018514;28;20657;-56
2021/01/12 04:16:58;;;;;;;23.48;13.52;;;;;;;;;;5027189;28;20203;-58
2021/01/12 04:19:24;;;;;;;24.67;13.77;;;;;;;;;;5029060;28;20056;-55
2021/01/12 04:21:51;;;;;;;26.23;14.57;;;;;;;;;;5025635;28;20025;-55
2021/01/12 04:24:17;;;;;;;24.33;14.63;;;;;;;;;;5027307;28;20029;-53
2021/01/12 04:26:43;;;;;;;22.75;13.38;;;;;;;;;;5027340;28;20049;-54
2021/01/12 04:29:09;;;;;;;27.45;14.30;;;;;;;;;;5027424;28;20037;-56
2021/01/12 04:31:34;;;;;;;24.25;14.50;;;;;;;;;;5024061;28;20029;-50
2021/01/12 04:34:00;;;;;;;22.60;14.05;;;;;;;;;;5036352;28;20600;-53
2021/01/12 04:36:26;;;;;;;22.50;13.55;;;;;;;;;;5030854;28;20424;-53
2021/01/12 04:38:52;;;;;;;21.67;12.98;;;;;;;;;;5025773;28;20385;-52
2021/01/12 04:41:18;;;;;;;23.30;14.20;;;;;;;;;;5022565;28;20441;-56
2021/01/12 04:43:44;;;;;;;24.90;14.77;;;;;;;;;;5023069;28;20061;-56
2021/01/12 04:46:10;;;;;;;26.98;15.45;;;;;;;;;;5028944;28;20029;-56
2021/01/12 04:48:36;;;;;;;24.75;14.68;;;;;;;;;;5025064;28;20124;-57
2021/01/12 04:51:07;;;;;;;28.02;15.65;;;;;;;;;;5027967;28;20164;-57
2021/01/12 04:53:37;;;;;;;23.02;14.98;;;;;;;;;;5029091;28;20534;-57
2021/01/12 04:56:03;;;;;;;26.55;14.70;;;;;;;;;;5027120;28;20048;-57
2021/01/12 04:58:38;;;;;;;26.55;15.38;;;;;;;;;;5027001;28;20033;-55
2021/01/12 05:01:08;;;;;;;24.58;14.43;;;;;;;;;;5026468;28;20036;-55
2021/01/12 05:03:34;;;;;;;27.73;15.43;;;;;;;;;;5028345;28;20033;-55
2021/01/12 05:06:00;;;;;;;26.90;15.43;;;;;;;;;;5027911;28;20167;-57
2021/01/12 05:08:28;;;;;;;28.48;15.18;;;;;;;;;;5025796;28;20041;-54
2021/01/12 05:10:57;;;;;;;23.67;14.07;;;;;;;;;;5025118;28;20041;-50
2021/01/12 05:13:24;;;;;;;24.75;14.80;;;;;;;;;;5019060;28;20072;-55
2021/01/12 05:15:50;;;;;;;27.50;15.23;;;;;;;;;;5017691;28;20037;-53
2021/01/12 05:18:19;;;;;;;24.00;14.57;;;;;;;;;;5018399;28;20519;-53
2021/01/12 05:20:46;;;;;;;26.52;15.77;;;;;;;;;;5019259;28;20034;-55
2021/01/12 05:23:13;;;;;;;24.15;14.88;;;;;;;;;;5026261;28;20412;-57
2021/01/12 05:25:40;;;;;;;24.15;14.52;;;;;;;;;;5027959;28;20021;-55
2021/01/12 05:28:10;;;;;;;26.88;14.98;;;;;;;;;;5026192;28;20083;-53
2021/01/12 05:30:36;;;;;;;26.73;15.48;;;;;;;;;;5025946;28;20083;-54
2021/01/12 05:33:03;;;;;;;24.00;14.45;;;;;;;;;;5025799;28;20586;-55
2021/01/12 05:35:30;;;;;;;21.48;14.20;;;;;;;;;;5028795;28;20088;-56
2021/01/12 05:38:06;;;;;;;23.83;14.82;;;;;;;;;;5021302;28;20029;-53
2021/01/12 05:40:33;;;;;;;29.67;15.30;;;;;;;;;;5022999;28;20473;-55
2021/01/12 05:43:06;;;;;;;27.60;14.82;;;;;;;;;;5022620;28;20136;-55
2021/01/12 05:45:38;;;;;;;25.85;14.73;;;;;;;;;;5023084;28;20021;-57
2021/01/12 05:48:05;;;;;;;23.83;14.27;;;;;;;;;;5021175;28;20032;-56
2021/01/12 05:50:32;;;;;;;22.25;13.45;;;;;;;;;;5016791;28;20121;-58
2021/01/12 05:53:07;;;;;;;23.52;13.93;;;;;;;;;;5024019;28;20034;-57
2021/01/12 05:55:40;;;;;;;27.95;15.13;;;;;;;;;;5027309;28;20048;-54
2021/01/12 05:58:15;;;;;;;24.20;14.45;;;;;;;;;;5023471;28;20041;-54
2021/01/12 06:00:42;;;;;;;28.63;15.02;;;;;;;;;;5022954;28;20452;-56
2021/01/12 06:03:09;;;;;;;27.00;14.75;;;;;;;;;;5014772;28;20030;-56
2021/01/12 06:05:37;;;;;;;24.42;14.80;;;;;;;;;;5028089;28;20389;-55
2021/01/12 06:08:03;;;;;;;25.83;14.38;;;;;;;;;;5024242;28;20030;-56
2021/01/12 06:10:29;;;;;;;25.75;13.85;;;;;;;;;;5027883;28;20106;-53
2021/01/12 06:13:01;;;;;;;27.08;15.40;;;;;;;;;;5016443;28;20035;-58
2021/01/12 06:15:28;;;;;;;24.27;13.55;;;;;;;;;;5027802;28;20029;-57
2021/01/12 06:18:04;;;;;;;22.75;14.30;;;;;;;;;;5027797;28;20033;-55
2021/01/12 06:20:33;;;;;;;22.13;13.77;;;;;;;;;;5028158;28;20030;-56
2021/01/12 06:23:06;;;;;;;21.02;13.35;;;;;;;;;;5025423;28;20083;-53
2021/01/12 06:25:32;;;;;;;21.08;13.40;;;;;;;;;;5024191;28;20029;-52
2021/01/12 06:27:58;;;;;;;26.77;14.25;;;;;;;;;;5026234;28;20519;-56
2021/01/12 06:30:24;;;;;;;22.08;13.10;;;;;;;;;;5027545;28;20037;-56
2021/01/12 06:32:52;;;;;;;22.52;13.65;;;;;;;;;;5024636;28;20491;-55
2021/01/12 06:35:17;;;;;;;24.40;14.48;;;;;;;;;;5024894;28;20029;-58
2021/01/12 06:37:44;;;;;;;23.08;13.48;;;;;;;;;;5027792;28;20355;-55
2021/01/12 06:40:11;;;;;;;22.55;12.75;;;;;;;;;;5027166;28;20030;-58
2021/01/12 06:42:38;;;;;;;20.52;12.25;;;;;;;;;;5023553;28;20077;-56
2021/01/12 06:45:05;;;;;;;21.13;13.05;;;;;;;;;;5015156;28;20508;-55
2021/01/12 06:47:31;;;;;;;21.55;13.32;;;;;;;;;;5007944;28;20763;-58
2021/01/12 06:50:04;;;;;;;23.13;13.73;;;;;;;;;;5013003;28;20117;-53
2021/01/12 06:52:30;;;;;;;19.63;12.68;;;;;;;;;;5026736;28;20489;-55
2021/01/12 06:55:05;;;;;;;19.60;12.05;;;;;;;;;;5027201;28;20037;-57
2021/01/12 06:57:32;;;;;;;19.60;12.20;;;;;;;;;;5026730;28;20120;-56
2021/01/12 06:59:58;;;;;;;18.58;11.02;;;;;;;;;;5027464;28;20461;-55
2021/01/12 07:02:25;;;;;;;20.42;12.82;;;;;;;;;;5027697;28;20029;-54
2021/01/12 07:04:58;;;;;;;20.58;12.30;;;;;;;;;;5026906;28;20481;-58
2021/01/12 07:07:24;;;;;;;21.10;12.48;;;;;;;;;;5027236;28;20033;-55
2021/01/12 07:10:01;;;;;;;19.85;12.40;;;;;;;;;;5027635;28;20088;-55
2021/01/12 07:12:28;;;;;;;18.33;11.73;;;;;;;;;;5018610;28;20067;-56
2021/01/12 07:14:55;;;;;;;26.20;12.57;;;;;;;;;;5007665;28;20619;-54
2021/01/12 07:17:29;;;;;;;20.00;13.23;;;;;;;;;;5021382;28;20029;-55
2021/01/12 07:20:02;;;;;;;19.50;13.02;;;;;;;;;;5019339;28;20033;-52
2021/01/12 07:22:31;;;;;;;17.88;11.50;;;;;;;;;;5027048;28;20040;-56
2021/01/12 07:24:57;;;;;;;19.00;11.82;;;;;;;;;;5026970;28;20083;-58
2021/01/12 07:27:23;;;;;;;18.90;11.07;;;;;;;;;;5025558;28;20038;-55
2021/01/12 07:29:49;;;;;;;19.25;12.20;;;;;;;;;;5021784;28;20034;-55
2021/01/12 07:32:45;;;;;;;16.90;10.50;;;;;;;;;;5028830;28;20061;-57
2021/01/12 07:35:11;;;;;;;16.58;11.18;;;;;;;;;;5010040;28;20037;-57
2021/01/12 07:37:38;;;;;;;17.30;11.35;;;;;;;;;;5031070;28;20366;-54
2021/01/12 07:40:06;;;;;;;16.75;10.30;;;;;;;;;;5025985;28;20037;-58
2021/01/12 07:42:32;;;;;;;15.15;10.52;;;;;;;;;;5030126;28;20444;-56
2021/01/12 07:44:58;;;;;;;16.17;10.30;;;;;;;;;;5030700;28;20055;-57
2021/01/12 07:47:25;;;;;;;14.40;9.70;;;;;;;;;;5017260;28;20029;-55
2021/01/12 07:49:51;;;;;;;16.67;10.18;;;;;;;;;;5028100;28;20029;-55
2021/01/12 07:52:21;;;;;;;16.17;9.18;;;;;;;;;;5023640;28;20022;-56
2021/01/12 07:54:48;;;;;;;15.35;9.68;;;;;;;;;;5028197;28;20036;-58
2021/01/12 07:57:14;;;;;;;13.60;8.70;;;;;;;;;;5026128;28;20031;-55
2021/01/12 07:59:41;;;;;;;11.43;7.82;;;;;;;;;;5027617;28;20493;-58
2021/01/12 08:02:07;;;;;;;12.45;8.30;;;;;;;;;;5025970;28;20018;-55
2021/01/12 08:04:33;;;;;;;13.02;8.38;;;;;;;;;;5025847;28;20029;-53
2021/01/12 08:07:00;;;;;;;12.90;7.22;;;;;;;;;;5025405;28;20033;-55
2021/01/12 08:09:26;;;;;;;15.60;8.40;;;;;;;;;;5028849;28;20048;-52
2021/01/12 08:11:53;;;;;;;12.73;8.32;;;;;;;;;;5021541;28;20033;-56
2021/01/12 08:14:23;;;;;;;11.82;8.23;;;;;;;;;;5024400;28;20058;-54
2021/01/12 08:16:53;;;;;;;10.00;6.75;;;;;;;;;;5028334;28;20052;-55
2021/01/12 08:19:20;;;;;;;11.95;7.43;;;;;;;;;;5010397;28;20044;-55
2021/01/12 08:21:46;;;;;;;11.05;7.55;;;;;;;;;;5026877;28;20014;-57
2021/01/12 08:24:12;;;;;;;10.95;7.32;;;;;;;;;;5025383;28;20082;-56
2021/01/12 08:26:45;;;;;;;14.48;7.55;;;;;;;;;;5018917;28;20021;-55
2021/01/12 08:29:11;;;;;;;8.98;4.75;;;;;;;;;;5021329;28;20401;-57
2021/01/12 08:31:43;;;;;;;9.77;6.38;;;;;;;;;;5025410;28;20065;-57
2021/01/12 08:34:09;;;;;;;10.80;7.47;;;;;;;;;;5024474;28;20493;-53
2021/01/12 08:36:36;;;;;;;10.07;6.28;;;;;;;;;;5024038;28;20040;-55
2021/01/12 08:39:02;;;;;;;9.63;6.50;;;;;;;;;;5021342;28;20030;-53
2021/01/12 08:41:29;;;;;;;10.23;6.97;;;;;;;;;;5022529;28;20042;-55
2021/01/12 08:43:58;;;;;;;8.23;6.03;;;;;;;;;;5027912;28;20041;-54
2021/01/12 08:46:28;;;;;;;9.63;6.00;;;;;;;;;;5027868;28;20052;-54
2021/01/12 08:48:54;;;;;;;8.13;6.03;;;;;;;;;;5024346;28;20068;-53
2021/01/12 08:51:20;;;;;;;7.80;5.82;;;;;;;;;;5027095;28;20655;-54
2021/01/12 08:53:46;;;;;;;9.02;6.10;;;;;;;;;;5015003;28;20042;-56
2021/01/12 08:56:12;;;;;;;8.82;5.90;;;;;;;;;;5021403;28;20084;-51
2021/01/12 08:58:38;;;;;;;8.32;5.90;;;;;;;;;;5027607;28;20037;-56
2021/01/12 09:01:05;;;;;;;8.38;5.65;;;;;;;;;;5024611;28;20025;-56
2021/01/12 09:03:31;;;;;;;9.68;6.18;;;;;;;;;;5028539;28;20060;-53
2021/01/12 09:05:57;;;;;;;8.75;6.78;;;;;;;;;;5030841;28;20037;-53
2021/01/12 09:08:24;;;;;;;8.93;5.85;;;;;;;;;;5028342;28;20128;-55
2021/01/12 09:10:50;;;;;;;8.75;6.00;;;;;;;;;;5028073;28;20040;-52
2021/01/12 09:13:16;;;;;;;10.50;5.32;;;;;;;;;;5029004;28;20072;-52
2021/01/12 09:15:46;;;;;;;6.57;4.95;;;;;;;;;;5028172;28;20033;-54
2021/01/12 09:18:19;;;;;;;7.28;5.32;;;;;;;;;;5026139;28;20060;-56
2021/01/12 09:20:59;;;;;;;6.63;4.90;;;;;;;;;;5025892;28;20839;-56
2021/01/12 09:23:25;;;;;;;6.78;4.88;;;;;;;;;;5025236;28;20513;-53
2021/01/12 09:25:51;;;;;;;7.53;5.32;;;;;;;;;;5027804;28;20040;-55
2021/01/12 09:28:18;;;;;;;7.38;5.00;;;;;;;;;;5034599;28;20037;-54
2021/01/12 09:30:45;;;;;;;6.45;4.60;;;;;;;;;;5025418;28;20064;-53
2021/01/12 09:33:22;;;;;;;6.45;4.38;;;;;;;;;;5026001;28;20029;-56
2021/01/12 09:35:48;;;;;;;6.43;4.90;;;;;;;;;;5027015;28;20049;-57
2021/01/12 09:38:14;;;;;;;7.18;4.25;;;;;;;;;;5026982;28;20029;-53
2021/01/12 09:40:40;;;;;;;6.05;4.30;;;;;;;;;;5018520;28;20029;-53
2021/01/12 09:43:06;;;;;;;8.20;4.47;;;;;;;;;;5026930;28;20036;-56
2021/01/12 09:45:34;;;;;;;5.43;4.10;;;;;;;;;;5026482;28;20056;-51
2021/01/12 09:48:02;;;;;;;5.70;3.88;;;;;;;;;;5027749;28;20458;-53
2021/01/12 09:50:27;;;;;;;4.82;4.00;;;;;;;;;;5026111;28;20108;-55
2021/01/12 09:52:53;;;;;;;19.05;15.05;;;;;;;;;;5025592;28;20029;-51
2021/01/12 09:55:19;;;;;;;7.75;5.00;;;;;;;;;;5027172;28;20132;-56
2021/01/12 09:57:47;;;;;;;5.55;4.05;;;;;;;;;;5027256;28;20021;-57
2021/01/12 10:00:14;;;;;;;6.25;4.03;;;;;;;;;;5027686;28;20025;-52
2021/01/12 10:02:40;;;;;;;6.00;4.28;;;;;;;;;;5027477;28;20025;-55
2021/01/12 10:05:06;;;;;;;4.72;3.75;;;;;;;;;;5026050;28;20033;-51
2021/01/12 10:07:32;;;;;;;5.65;4.38;;;;;;;;;;5026304;28;20030;-57
2021/01/12 10:09:58;;;;;;;6.13;3.78;;;;;;;;;;5026654;28;20037;-56
2021/01/12 10:12:24;;;;;;;5.88;4.25;;;;;;;;;;5018823;28;20087;-54
2021/01/12 10:14:50;;;;;;;5.95;4.05;;;;;;;;;;5026133;28;20033;-54
2021/01/12 10:17:16;;;;;;;5.32;4.32;;;;;;;;;;5023108;28;20029;-56
2021/01/12 10:19:42;;;;;;;7.38;4.65;;;;;;;;;;5016078;28;20091;-53
2021/01/12 10:22:08;;;;;;;6.85;4.95;;;;;;;;;;5025676;28;20024;-57
2021/01/12 10:24:34;;;;;;;5.78;4.15;;;;;;;;;;5036619;28;20018;-56
2021/01/12 10:27:00;;;;;;;6.20;4.22;;;;;;;;;;5021528;28;20051;-56
2021/01/12 10:29:26;;;;;;;9.25;4.70;;;;;;;;;;5017614;28;20033;-58
2021/01/12 10:31:52;;;;;;;6.93;4.50;;;;;;;;;;5016903;28;20121;-55
2021/01/12 10:34:20;;;;;;;7.25;4.55;;;;;;;;;;5023369;28;20033;-55
2021/01/12 10:36:49;;;;;;;5.80;4.80;;;;;;;;;;5022021;28;20025;-57
2021/01/12 10:39:15;;;;;;;6.22;4.38;;;;;;;;;;5018723;28;20030;-56
2021/01/12 10:41:41;;;;;;;5.22;3.85;;;;;;;;;;5009506;28;20034;-56
2021/01/12 10:44:07;;;;;;;6.68;4.25;;;;;;;;;;5020520;28;20057;-54
2021/01/12 10:46:33;;;;;;;5.78;4.20;;;;;;;;;;5026418;28;20033;-55
2021/01/12 10:48:59;;;;;;;6.07;4.55;;;;;;;;;;5024632;28;20397;-56
2021/01/12 10:51:25;;;;;;;6.00;4.22;;;;;;;;;;5011231;28;20022;-52
2021/01/12 10:53:51;;;;;;;5.22;4.05;;;;;;;;;;5023720;28;20037;-55
2021/01/12 10:56:17;;;;;;;5.40;3.97;;;;;;;;;;5021199;28;20037;-57
2021/01/12 10:58:43;;;;;;;7.55;3.95;;;;;;;;;;5023486;28;20033;-53
2021/01/12 11:01:10;;;;;;;7.45;4.30;;;;;;;;;;5023264;28;20863;-55
2021/01/12 11:03:36;;;;;;;6.10;3.83;;;;;;;;;;5023434;28;20052;-58
2021/01/12 11:06:02;;;;;;;5.13;4.00;;;;;;;;;;5026288;28;20040;-53
2021/01/12 11:08:28;;;;;;;6.78;3.97;;;;;;;;;;5027097;28;20503;-57
2021/01/12 11:10:54;;;;;;;3.53;2.83;;;;;;;;;;5027740;28;20505;-54
2021/01/12 11:13:20;;;;;;;6.60;3.45;;;;;;;;;;5027491;28;20029;-54
2021/01/12 11:15:46;;;;;;;4.47;3.85;;;;;;;;;;5021179;28;20021;-55
2021/01/12 11:18:12;;;;;;;4.68;3.65;;;;;;;;;;5024578;28;20040;-57
2021/01/12 11:20:38;;;;;;;5.72;4.05;;;;;;;;;;5023827;28;20057;-57
2021/01/12 11:23:04;;;;;;;5.45;4.20;;;;;;;;;;5017923;28;20025;-53
2021/01/12 11:25:30;;;;;;;6.55;4.13;;;;;;;;;;5019894;28;20136;-54
2021/01/12 11:27:57;;;;;;;5.45;4.05;;;;;;;;;;5018279;28;20507;-55
2021/01/12 11:30:23;;;;;;;5.97;3.88;;;;;;;;;;5025171;28;20029;-52
2021/01/12 11:32:49;;;;;;;6.55;3.50;;;;;;;;;;5033006;28;20033;-57
2021/01/12 11:35:15;;;;;;;4.95;3.95;;;;;;;;;;5028434;28;20596;-54
2021/01/12 11:37:43;;;;;;;5.13;3.80;;;;;;;;;;5026347;28;20035;-57
2021/01/12 11:40:10;;;;;;;6.57;4.28;;;;;;;;;;5024230;28;20458;-56
2021/01/12 11:42:35;;;;;;;4.43;3.47;;;;;;;;;;5025116;28;20077;-57
2021/01/12 11:45:01;;;;;;;5.47;4.10;;;;;;;;;;5018424;28;20448;-53
2021/01/12 11:47:27;;;;;;;5.85;3.97;;;;;;;;;;5016567;28;20449;-56
2021/01/12 11:49:53;;;;;;;5.53;3.95;;;;;;;;;;5021657;28;20033;-56
2021/01/12 11:52:19;;;;;;;5.82;3.88;;;;;;;;;;5023904;28;20037;-56
2021/01/12 11:54:45;;;;;;;6.35;4.20;;;;;;;;;;5026072;28;20040;-55
2021/01/12 11:57:13;;;;;;;7.82;4.05;;;;;;;;;;5029389;28;20029;-56
2021/01/12 11:59:39;;;;;;;5.22;3.63;;;;;;;;;;5028405;28;20037;-56
2021/01/12 12:02:05;;;;;;;5.00;3.88;;;;;;;;;;5020903;28;20076;-56
2021/01/12 12:04:31;;;;;;;5.53;3.80;;;;;;;;;;5020186;28;20040;-58
2021/01/12 12:06:58;;;;;;;4.85;3.70;;;;;;;;;;5021418;28;20026;-53
2021/01/12 12:09:25;;;;;;;5.80;3.95;;;;;;;;;;5024447;28;20076;-58
2021/01/12 12:11:51;;;;;;;5.38;3.60;;;;;;;;;;5026661;28;20041;-56
2021/01/12 12:14:17;;;;;;;5.53;3.72;;;;;;;;;;5023718;28;20036;-57
2021/01/12 12:16:44;;;;;;;7.47;4.13;;;;;;;;;;5021234;28;20037;-55
2021/01/12 12:19:10;;;;;;;6.55;4.15;;;;;;;;;;5018472;28;20077;-57
2021/01/12 12:21:37;;;;;;;5.22;3.53;;;;;;;;;;5024660;28;20037;-56
2021/01/12 12:24:03;;;;;;;7.60;4.25;;;;;;;;;;5026290;28;20060;-54
2021/01/12 12:26:29;;;;;;;5.20;3.78;;;;;;;;;;5026517;28;20104;-53
2021/01/12 12:28:55;;;;;;;6.10;4.07;;;;;;;;;;5020113;28;20113;-57
2021/01/12 12:31:21;;;;;;;5.07;4.00;;;;;;;;;;5028998;28;20083;-58
2021/01/12 12:33:47;;;;;;;9.70;4.38;;;;;;;;;;5026831;28;20037;-55
2021/01/12 12:36:15;;;;;;;6.28;4.10;;;;;;;;;;5024172;28;20025;-56
2021/01/12 12:38:42;;;;;;;6.80;3.55;;;;;;;;;;5029656;28;20039;-55
2021/01/12 12:41:08;;;;;;;6.82;4.38;;;;;;;;;;5027190;28;20747;-57
2021/01/12 12:43:34;;;;;;;7.68;3.58;;;;;;;;;;5020375;28;20508;-55
2021/01/12 12:46:01;;;;;;;6.93;4.60;;;;;;;;;;5026341;28;20497;-58
2021/01/12 12:48:26;;;;;;;8.13;4.72;;;;;;;;;;5012372;28;20041;-57
2021/01/12 12:50:53;;;;;;;5.47;4.00;;;;;;;;;;5023272;28;20515;-57
2021/01/12 12:53:19;;;;;;;5.68;3.90;;;;;;;;;;5018345;28;20081;-53
2021/01/12 12:55:45;;;;;;;5.82;3.85;;;;;;;;;;5028368;28;20040;-53
2021/01/12 12:58:11;;;;;;;8.63;4.13;;;;;;;;;;5024945;28;20030;-56
2021/01/12 13:00:37;;;;;;;6.53;4.25;;;;;;;;;;5024147;28;20037;-50
2021/01/12 13:03:03;;;;;;;4.68;3.78;;;;;;;;;;5020424;28;20492;-57
2021/01/12 13:05:29;;;;;;;5.15;3.80;;;;;;;;;;5021581;28;20029;-55
2021/01/12 13:07:55;;;;;;;10.35;4.18;;;;;;;;;;5025078;28;20029;-55
2021/01/12 13:10:21;;;;;;;5.88;3.90;;;;;;;;;;5025483;28;20033;-56
2021/01/12 13:12:48;;;;;;;4.43;3.28;;;;;;;;;;5027078;28;20022;-54
2021/01/12 13:15:14;;;;;;;4.60;3.42;;;;;;;;;;5024298;28;20489;-57
2021/01/12 13:17:45;;;;;;;5.47;3.78;;;;;;;;;;5023988;28;20029;-50
2021/01/12 13:20:11;;;;;;;4.45;3.13;;;;;;;;;;5023059;28;20037;-53
2021/01/12 13:22:39;;;;;;;5.25;3.17;;;;;;;;;;5022320;28;20029;-58
2021/01/12 13:25:06;;;;;;;3.80;2.90;;;;;;;;;;5026730;28;20022;-54
2021/01/12 13:27:32;;;;;;;4.03;2.97;;;;;;;;;;5027974;28;20029;-53
2021/01/12 13:29:58;;;;;;;6.68;3.25;;;;;;;;;;5026857;28;20106;-58
2021/01/12 13:32:24;;;;;;;4.28;2.83;;;;;;;;;;5015276;28;20029;-56
2021/01/12 13:34:50;;;;;;;3.60;2.75;;;;;;;;;;5028546;28;20037;-57
2021/01/12 13:37:16;;;;;;;4.50;3.33;;;;;;;;;;5025747;28;20079;-56
2021/01/12 13:39:42;;;;;;;3.33;2.65;;;;;;;;;;5025916;28;20633;-54
2021/01/12 13:42:08;;;;;;;3.67;2.63;;;;;;;;;;5022806;28;20052;-57
2021/01/12 13:44:36;;;;;;;2.80;2.53;;;;;;;;;;5024191;28;20103;-56
2021/01/12 13:47:01;;;;;;;2.88;2.30;;;;;;;;;;5026716;28;20033;-55
2021/01/12 13:49:28;;;;;;;3.58;2.30;;;;;;;;;;5024946;28;20030;-56
2021/01/12 13:51:53;;;;;;;2.78;2.05;;;;;;;;;;5026569;28;20034;-55
2021/01/12 13:54:22;;;;;;;4.10;2.38;;;;;;;;;;5017189;28;20037;-53
2021/01/12 13:56:51;;;;;;;3.78;2.40;;;;;;;;;;5022942;28;20128;-51
2021/01/12 13:59:17;;;;;;;4.35;3.95;;;;;;;;;;5025109;28;20041;-52
2021/01/12 14:01:44;;;;;;;2.70;1.88;;;;;;;;;;5026497;28;20029;-49
2021/01/12 14:04:11;;;;;;;2.58;2.20;;;;;;;;;;5012398;28;20025;-54
2021/01/12 14:06:37;;;;;;;2.55;1.98;;;;;;;;;;5018875;28;20843;-54
2021/01/12 14:09:03;;;;;;;2.78;1.73;;;;;;;;;;5024687;28;20076;-53
2021/01/12 14:11:31;;;;;;;2.97;1.83;;;;;;;;;;5020585;28;20159;-56
2021/01/12 14:13:56;;;;;;;2.05;1.52;;;;;;;;;;5023330;28;20060;-56
2021/01/12 14:16:23;;;;;;;1.88;1.42;;;;;;;;;;5027270;28;20033;-51
2021/01/12 14:18:49;;;;;;;2.20;1.40;;;;;;;;;;5026118;28;20030;-57
2021/01/12 14:21:22;;;;;;;1.10;1.00;;;;;;;;;;5016277;28;20059;-57
2021/01/12 14:23:49;;;;;;;2.15;1.42;;;;;;;;;;5027770;28;20044;-56
2021/01/12 14:26:16;;;;;;;1.45;1.05;;;;;;;;;;5027775;28;20362;-54